Benvolgut visitant, si us plau, ingressa Recuperar contrasenya
AVAMET paisatges
Union Alcoyana

Ontinyent Manuel Iranzo

Dades diàries. Acumulats / Últims 30 dies disponibles

Data Temperatura (°C) Humitat rel. (%) Pressió rel. (hPa) Vent (km/h) Precipitació
Mínima Mitjana Màxima Amplitud
tèrmica
Mínima Mitjana Màxima Mínima Mitjana Màxima Predom. Mitjana Ràfega
màxima
Total
(mm)
Índex-n
Mínima Mitjana Màxima Mínima Mitjana Màxima n
0 a 1
P0 max
mm 5'
Dades mensuals acumulades fins l'últim dia disponible
12/2022 3,2 8,1 14,3 11,6 8,5 16,6 22,5 19,3 31 79 99 999 1.015 1.030   10,0 93,6 38,0
Dades anuals acumulades fins l'últim dia disponible
2022 3,2 10,5 17,0 14,8 8,5 20,4 29,2 26,0 19 75 99 999 1.017 1.030   9,2 113,8 122,5
Últims 30 dies disponibles
29-12-2022 6,1     8,1     16,0 9,9 41 63 72 1.021 1.022 1.024 O 9,4 36,7 0,0
28-12-2022 4,4     10,3     18,4 14,0 38 63 86 1.021 1.024 1.028 OSO 8,6 25,6 0,0
27-12-2022 5,7     10,5     19,2 13,5 43 66 79 1.027 1.028 1.030 SSO 5,2 14,8 0,0
26-12-2022 6,9     12,3     21,6 14,7 34 61 74 1.022 1.024 1.028 SO 5,8 16,6 0,0
25-12-2022 8,8     14,8     22,5 13,7 31 59 79 1.019 1.020 1.022 OSO 7,6 38,5 0,0
24-12-2022 10,5     14,4     21,5 11,0 43 67 81 1.019 1.021 1.023 OSO 8,2 29,5 0,0
23-12-2022 10,6     15,1     22,1 11,5 48 69 86 1.021 1.023 1.025 OSO 13,2 55,1 0,0
22-12-2022 11,6     13,8     16,8 5,2 65 75 83 1.024 1.025 1.026 OSO 18,0 56,9 0,0
21-12-2022 11,2     13,5     17,5 6,3 56 73 85 1.022 1.023 1.024 OSO 15,6 51,5 0,0
20-12-2022 6,3     11,2     19,0 12,7 41 79 99 1.020 1.022 1.025 O 11,4 38,5 0,3
19-12-2022 3,2     8,0     14,4 11,2 75 93 99 1.025 1.026 1.027 SSO 4,1 14,8 0,4
18-12-2022 5,4     9,5     16,3 10,9 62 86 98 1.022 1.025 1.027 OSO 5,9 22,0 0,2
17-12-2022 6,3     9,8     16,8 10,5 62 87 97 1.012 1.016 1.022 SO 5,2 20,2 0,1
16-12-2022 7,1     10,5     14,6 7,5 57 76 89 1.004 1.008 1.012 OSO 11,2 42,1 0,0
15-12-2022 8,9     12,1     15,1 6,2 64 76 92 999 1.000 1.004 OSO 13,9 53,3 2,3 0,24 0,50
14-12-2022 13,4     15,8     19,3 5,9 60 73 83 1.000 1.004 1.008 OSO 16,5 93,6 0,0
13-12-2022 14,3     17,3     19,4 5,1 60 78 97 1.001 1.005 1.008 SO 19,6 80,6 1,5 0,21 0,20
12-12-2022 13,6     16,1     19,3 5,7 64 72 80 1.004 1.008 1.011 OSO 20,5 93,6 0,0
11-12-2022 8,0     10,7     15,3 7,3 67 86 99 1.003 1.006 1.011 SSO 11,0 68,0 9,1 0,34 0,30
10-12-2022 10,6     12,2     14,9 4,3 67 77 88 1.001 1.006 1.011 OSO 16,7 60,5 0,3
09-12-2022 11,6     13,7     17,1 5,5 65 77 87 999 1.001 1.003 OSO 10,8 40,3 0,0
08-12-2022 6,2     10,9     15,9 9,7 72 89 99 1.002 1.006 1.011 SO 5,7 40,3 0,2
07-12-2022 6,8     11,5     17,1 10,3 66 90 99 1.010 1.012 1.015 SO 4,4 20,2 0,0
06-12-2022 9,8     10,9     12,3 2,5 95 99 99 1.013 1.014 1.015 SE 3,4 22,0 1,7 0,10
05-12-2022 5,8     9,3     10,5 4,7 94 99 99 1.013 1.014 1.016 ESE 4,9 20,2 1,0
04-12-2022 6,2     10,6     16,0 9,8 64 81 96 1.006 1.009 1.014 OSO 8,9 38,5 0,2
03-12-2022 3,7     8,8     13,5 9,8 61 85 99 1.005 1.007 1.010 SSO 9,2 42,1 0,1
02-12-2022 6,6     7,5     8,5 1,9 94 98 99 1.009 1.011 1.013 ENE 9,5 34,9 16,2 0,42 0,50
01-12-2022 4,1     8,2     10,3 6,2 87 95 99 1.012 1.013 1.014 ESE 4,3 27,7 4,4 0,42 0,30
30-11-2022 4,4     8,7     15,4 11,0 49 73 95 1.013 1.015 1.017 OSO 7,1 27,7 0,0
Últims 13 mesos disponibles
12/2022 3,2 8,1 14,3 11,6 8,5 16,6 22,5 19,3 59 79 99 1.000 1.015 1.028 OSO 10,0 93,6 38,0
11/2022 4,4 9,5 15,9 13,9 12,9 19,2 24,8 20,4 42 69 98 1.009 1.018 1.026 OSO 12,1 113,8 18,9
10/2022 8,1 13,7 17,0 18,3 19,3 24,5 29,2 21,1 47 80 97 1.015 1.019 1.024 S 5,2 43,9 65,6
Tots els anys disponibles
Temperatura (°C)
Humitat relativa (%)
Velocitat del vent i ràfega màxima (km/h)
Direcció del vent (°)
Pressió (hPa)
Precipitació (mm)
Nota sobre les dades: s'avisa a l'usuari de la provisionalitat i no oficialitat d'aquestes dades
Logo AVAMET blanc
Web allotjada a Sollutia
Llicència de Creative CommonsLa web d'AVAMET i els seus continguts estan subjectes a una llicència de
Reconeixement - No Comercial - Compartir igual
Avís legal - Política de privacitat - Política de cookies
NOVES ESTACIONS: Villar del Arzobispo - Oest (Ajuntament/Soci), Benissa (Ajuntament/Soci), Favara (Ajuntament/Soci), Ayora - Polígono (Soci), Ibi - IES la Foia (Soci), Vallada - Molí de Baix (Soci), Morella - Mas d'Agustino (Soci), Almassora (Ajuntament/Soci), Carcaixent (Ajuntament/Soci), l'Eliana - Pinaeta del Cel (Soci), Fuentes de Ayódar (Ajuntament/Soci), Quatretonda - sud-est (Soci), València - el Saler (Platja de la Garrofera) (Soci), la Vall de GallineraBenialí (Ajuntament/Soci), Torrevieja (Institut Cartogràfic Valencià), Xodos - Mas de Caixó (Soci), Catí - Venta de l'Aire (Soci/Electra del Maestrazgo), Herbers (Ajuntament/Soci) - - -